Impacts TAF Board
For situational awareness. Not to be used for flight planning purposes.
IDs:

KHDN - Hayden/Yampa Valley, CO, US

Issued at 1121 UTC 07 Jul 2020
Updated at 1223 UTC 07 Jul 2020
Potential Impact None Slight Moderate High
Time<<08/01Z 08/02Z 08/03Z 08/04Z 08/05Z 08/06Z 08/07Z 08/08Z 08/09Z 08/10Z 08/11Z 08/12Z 08/13Z>>
Type PRVL PRVL PRVL PRVL PRVL PRVL PRVL PRVL PRVL PRVL PRVL
VIS >6 >6 >6 >6 >6 >6 >6 >6 >6 >6 >6
CIG -- -- -- -- -- -- -- -- -- -- --
Cover FEW FEW SKC SKC SKC SKC SKC SKC SKC SKC SKC
FltCat VFR VFR VFR VFR VFR VFR VFR VFR VFR VFR VFR
WX -- -- -- -- -- -- -- -- -- -- --
WDir 240 240 240 240 240 240 240 240 240 240 240
WSpd 17 17 5 5 5 5 5 5 5 5 5
WGst 26 26 -- -- -- -- -- -- -- -- --
Raw TAF
KHDN 071121Z 0712/0812 11010KT P6SM FEW120 SCT200
  FM071400 11011G19KT P6SM FEW200
  FM071600 14013G21KT P6SM FEW200
  FM071800 24017G26KT P6SM FEW150 FEW250
  FM080300 24005KT P6SM SKC


METAR Board
Radar Display
Forecast Discussion
For situational awareness. Not to be used for flight planning purposes.